sensor_id;sensor_type;location;lat;lon;timestamp;P1;durP1;ratioP1;P2;durP2;ratioP2
5225;SDS011;2632;51.666;7.146;2024-01-15T00:00:15;41.50;;;19.53;;
5225;SDS011;2632;51.666;7.146;2024-01-15T00:02:42;42.33;;;20.57;;
5225;SDS011;2632;51.666;7.146;2024-01-15T00:05:09;46.70;;;21.17;;
5225;SDS011;2632;51.666;7.146;2024-01-15T00:07:36;45.23;;;20.90;;
5225;SDS011;2632;51.666;7.146;2024-01-15T00:10:03;44.47;;;19.67;;
5225;SDS011;2632;51.666;7.146;2024-01-15T00:12:30;44.10;;;19.43;;
5225;SDS011;2632;51.666;7.146;2024-01-15T00:14:57;47.37;;;20.97;;
5225;SDS011;2632;51.666;7.146;2024-01-15T00:17:23;43.20;;;20.50;;
5225;SDS011;2632;51.666;7.146;2024-01-15T00:19:50;46.03;;;19.30;;
5225;SDS011;2632;51.666;7.146;2024-01-15T00:22:17;46.10;;;20.90;;
5225;SDS011;2632;51.666;7.146;2024-01-15T00:24:44;38.37;;;17.40;;
5225;SDS011;2632;51.666;7.146;2024-01-15T00:27:11;40.07;;;18.97;;
5225;SDS011;2632;51.666;7.146;2024-01-15T00:29:37;42.00;;;19.27;;
5225;SDS011;2632;51.666;7.146;2024-01-15T00:32:04;44.97;;;20.10;;
5225;SDS011;2632;51.666;7.146;2024-01-15T00:34:31;40.17;;;18.90;;
5225;SDS011;2632;51.666;7.146;2024-01-15T00:36:58;46.30;;;19.77;;
5225;SDS011;2632;51.666;7.146;2024-01-15T00:39:25;44.17;;;18.30;;
5225;SDS011;2632;51.666;7.146;2024-01-15T00:41:52;37.77;;;18.33;;
5225;SDS011;2632;51.666;7.146;2024-01-15T00:44:18;40.60;;;18.00;;
5225;SDS011;2632;51.666;7.146;2024-01-15T00:46:45;41.10;;;18.93;;
5225;SDS011;2632;51.666;7.146;2024-01-15T00:49:12;43.87;;;18.60;;
5225;SDS011;2632;51.666;7.146;2024-01-15T00:51:40;37.30;;;17.57;;
5225;SDS011;2632;51.666;7.146;2024-01-15T00:54:07;45.67;;;19.13;;
5225;SDS011;2632;51.666;7.146;2024-01-15T00:56:34;45.00;;;19.80;;
5225;SDS011;2632;51.666;7.146;2024-01-15T00:59:01;40.70;;;17.93;;
5225;SDS011;2632;51.666;7.146;2024-01-15T01:01:27;43.23;;;18.33;;
5225;SDS011;2632;51.666;7.146;2024-01-15T01:03:54;39.87;;;16.93;;
5225;SDS011;2632;51.666;7.146;2024-01-15T01:06:21;41.97;;;17.40;;
5225;SDS011;2632;51.666;7.146;2024-01-15T01:08:48;40.70;;;18.17;;
5225;SDS011;2632;51.666;7.146;2024-01-15T01:11:15;45.13;;;18.70;;
5225;SDS011;2632;51.666;7.146;2024-01-15T01:13:42;39.60;;;19.43;;
5225;SDS011;2632;51.666;7.146;2024-01-15T01:16:08;43.40;;;18.83;;
5225;SDS011;2632;51.666;7.146;2024-01-15T01:18:35;43.43;;;18.13;;
5225;SDS011;2632;51.666;7.146;2024-01-15T01:21:02;36.87;;;17.03;;
5225;SDS011;2632;51.666;7.146;2024-01-15T01:23:29;38.90;;;16.97;;
5225;SDS011;2632;51.666;7.146;2024-01-15T01:25:56;38.43;;;17.00;;
5225;SDS011;2632;51.666;7.146;2024-01-15T01:28:23;40.43;;;17.23;;
5225;SDS011;2632;51.666;7.146;2024-01-15T01:30:49;38.17;;;17.50;;
5225;SDS011;2632;51.666;7.146;2024-01-15T01:33:16;40.43;;;16.70;;
5225;SDS011;2632;51.666;7.146;2024-01-15T01:35:43;32.90;;;15.47;;
5225;SDS011;2632;51.666;7.146;2024-01-15T01:38:11;38.10;;;17.00;;
5225;SDS011;2632;51.666;7.146;2024-01-15T01:40:37;39.40;;;17.03;;
5225;SDS011;2632;51.666;7.146;2024-01-15T01:43:08;32.37;;;15.27;;
5225;SDS011;2632;51.666;7.146;2024-01-15T01:45:36;30.23;;;15.40;;
5225;SDS011;2632;51.666;7.146;2024-01-15T01:48:03;30.70;;;16.40;;
5225;SDS011;2632;51.666;7.146;2024-01-15T01:50:31;32.53;;;14.73;;
5225;SDS011;2632;51.666;7.146;2024-01-15T01:52:58;31.17;;;15.07;;
5225;SDS011;2632;51.666;7.146;2024-01-15T01:55:26;32.50;;;15.40;;
5225;SDS011;2632;51.666;7.146;2024-01-15T01:57:55;28.63;;;13.27;;
5225;SDS011;2632;51.666;7.146;2024-01-15T02:00:22;29.30;;;15.10;;
5225;SDS011;2632;51.666;7.146;2024-01-15T02:02:50;25.30;;;13.60;;
5225;SDS011;2632;51.666;7.146;2024-01-15T02:05:18;33.50;;;14.60;;
5225;SDS011;2632;51.666;7.146;2024-01-15T02:07:45;31.00;;;15.47;;
5225;SDS011;2632;51.666;7.146;2024-01-15T02:10:12;28.93;;;14.77;;
5225;SDS011;2632;51.666;7.146;2024-01-15T02:12:39;31.17;;;14.57;;
5225;SDS011;2632;51.666;7.146;2024-01-15T02:15:06;34.27;;;13.93;;
5225;SDS011;2632;51.666;7.146;2024-01-15T02:17:33;31.93;;;14.20;;
5225;SDS011;2632;51.666;7.146;2024-01-15T02:20:00;25.90;;;13.70;;
5225;SDS011;2632;51.666;7.146;2024-01-15T02:22:27;27.70;;;12.97;;
5225;SDS011;2632;51.666;7.146;2024-01-15T02:24:54;32.77;;;14.17;;
5225;SDS011;2632;51.666;7.146;2024-01-15T02:27:21;26.07;;;12.77;;
5225;SDS011;2632;51.666;7.146;2024-01-15T02:29:47;31.30;;;13.87;;
5225;SDS011;2632;51.666;7.146;2024-01-15T02:32:14;26.67;;;14.37;;
5225;SDS011;2632;51.666;7.146;2024-01-15T02:34:41;25.57;;;13.30;;
5225;SDS011;2632;51.666;7.146;2024-01-15T02:37:08;30.80;;;13.60;;
5225;SDS011;2632;51.666;7.146;2024-01-15T02:39:34;30.87;;;14.03;;
5225;SDS011;2632;51.666;7.146;2024-01-15T02:42:01;29.00;;;13.60;;
5225;SDS011;2632;51.666;7.146;2024-01-15T02:44:28;36.93;;;15.10;;
5225;SDS011;2632;51.666;7.146;2024-01-15T02:46:54;30.10;;;13.60;;
5225;SDS011;2632;51.666;7.146;2024-01-15T02:49:21;26.80;;;13.50;;
5225;SDS011;2632;51.666;7.146;2024-01-15T02:51:48;26.00;;;13.40;;
5225;SDS011;2632;51.666;7.146;2024-01-15T02:54:15;31.10;;;13.87;;
5225;SDS011;2632;51.666;7.146;2024-01-15T02:56:41;25.60;;;12.63;;
5225;SDS011;2632;51.666;7.146;2024-01-15T02:59:08;26.13;;;13.30;;
5225;SDS011;2632;51.666;7.146;2024-01-15T03:01:34;28.53;;;13.23;;
5225;SDS011;2632;51.666;7.146;2024-01-15T03:04:01;26.87;;;12.67;;
5225;SDS011;2632;51.666;7.146;2024-01-15T03:06:28;28.80;;;12.03;;
5225;SDS011;2632;51.666;7.146;2024-01-15T03:08:55;26.33;;;12.63;;
5225;SDS011;2632;51.666;7.146;2024-01-15T03:11:21;28.43;;;12.97;;
5225;SDS011;2632;51.666;7.146;2024-01-15T03:13:49;29.17;;;12.40;;
5225;SDS011;2632;51.666;7.146;2024-01-15T03:16:16;28.67;;;13.43;;
5225;SDS011;2632;51.666;7.146;2024-01-15T03:18:42;28.37;;;13.27;;
5225;SDS011;2632;51.666;7.146;2024-01-15T03:21:09;24.13;;;11.20;;
5225;SDS011;2632;51.666;7.146;2024-01-15T03:23:36;26.50;;;12.70;;
5225;SDS011;2632;51.666;7.146;2024-01-15T03:26:02;24.10;;;12.57;;
5225;SDS011;2632;51.666;7.146;2024-01-15T03:28:29;47.93;;;13.33;;
5225;SDS011;2632;51.666;7.146;2024-01-15T03:30:56;31.80;;;14.93;;
5225;SDS011;2632;51.666;7.146;2024-01-15T03:33:23;26.80;;;13.40;;
5225;SDS011;2632;51.666;7.146;2024-01-15T03:35:50;29.27;;;12.43;;
5225;SDS011;2632;51.666;7.146;2024-01-15T03:38:16;29.40;;;13.07;;
5225;SDS011;2632;51.666;7.146;2024-01-15T03:40:43;28.10;;;13.87;;
5225;SDS011;2632;51.666;7.146;2024-01-15T03:43:10;25.67;;;13.10;;
5225;SDS011;2632;51.666;7.146;2024-01-15T03:45:36;32.10;;;13.63;;
5225;SDS011;2632;51.666;7.146;2024-01-15T03:48:03;29.70;;;12.50;;
5225;SDS011;2632;51.666;7.146;2024-01-15T03:50:30;29.00;;;12.60;;
5225;SDS011;2632;51.666;7.146;2024-01-15T03:52:58;30.87;;;13.03;;
5225;SDS011;2632;51.666;7.146;2024-01-15T03:55:25;27.53;;;13.50;;
5225;SDS011;2632;51.666;7.146;2024-01-15T03:57:51;31.37;;;13.70;;
5225;SDS011;2632;51.666;7.146;2024-01-15T04:00:18;26.57;;;12.33;;
5225;SDS011;2632;51.666;7.146;2024-01-15T04:02:45;24.33;;;11.97;;
5225;SDS011;2632;51.666;7.146;2024-01-15T04:05:12;34.80;;;12.70;;
5225;SDS011;2632;51.666;7.146;2024-01-15T04:07:38;24.83;;;12.73;;
5225;SDS011;2632;51.666;7.146;2024-01-15T04:10:05;23.50;;;12.40;;
5225;SDS011;2632;51.666;7.146;2024-01-15T04:12:32;30.90;;;12.13;;
5225;SDS011;2632;51.666;7.146;2024-01-15T04:14:58;26.27;;;11.63;;
5225;SDS011;2632;51.666;7.146;2024-01-15T04:17:26;25.50;;;12.10;;
5225;SDS011;2632;51.666;7.146;2024-01-15T04:19:54;24.00;;;11.07;;
5225;SDS011;2632;51.666;7.146;2024-01-15T04:22:21;24.27;;;11.17;;
5225;SDS011;2632;51.666;7.146;2024-01-15T04:24:47;21.60;;;10.43;;
5225;SDS011;2632;51.666;7.146;2024-01-15T04:27:14;20.30;;;10.27;;
5225;SDS011;2632;51.666;7.146;2024-01-15T04:29:41;24.40;;;9.90;;
5225;SDS011;2632;51.666;7.146;2024-01-15T04:32:07;18.30;;;9.73;;
5225;SDS011;2632;51.666;7.146;2024-01-15T04:34:34;20.53;;;9.53;;
5225;SDS011;2632;51.666;7.146;2024-01-15T04:37:01;21.43;;;8.93;;
5225;SDS011;2632;51.666;7.146;2024-01-15T04:39:28;18.57;;;9.00;;
5225;SDS011;2632;51.666;7.146;2024-01-15T04:41:55;17.50;;;8.47;;
5225;SDS011;2632;51.666;7.146;2024-01-15T04:44:22;24.30;;;8.57;;
5225;SDS011;2632;51.666;7.146;2024-01-15T04:46:48;22.53;;;9.73;;
5225;SDS011;2632;51.666;7.146;2024-01-15T04:49:15;15.13;;;7.43;;
5225;SDS011;2632;51.666;7.146;2024-01-15T04:51:42;19.67;;;8.80;;
5225;SDS011;2632;51.666;7.146;2024-01-15T04:54:09;21.20;;;9.43;;
5225;SDS011;2632;51.666;7.146;2024-01-15T04:56:35;16.90;;;8.50;;
5225;SDS011;2632;51.666;7.146;2024-01-15T04:59:02;21.93;;;8.03;;
5225;SDS011;2632;51.666;7.146;2024-01-15T05:01:32;19.43;;;8.00;;
5225;SDS011;2632;51.666;7.146;2024-01-15T05:03:59;17.23;;;8.53;;
5225;SDS011;2632;51.666;7.146;2024-01-15T05:06:26;17.37;;;8.07;;
5225;SDS011;2632;51.666;7.146;2024-01-15T05:08:53;19.30;;;9.17;;
5225;SDS011;2632;51.666;7.146;2024-01-15T05:11:20;36.73;;;9.83;;
5225;SDS011;2632;51.666;7.146;2024-01-15T05:13:46;19.70;;;9.27;;
5225;SDS011;2632;51.666;7.146;2024-01-15T05:16:13;17.13;;;8.97;;
5225;SDS011;2632;51.666;7.146;2024-01-15T05:18:40;22.13;;;8.70;;
5225;SDS011;2632;51.666;7.146;2024-01-15T05:21:07;23.63;;;8.70;;
5225;SDS011;2632;51.666;7.146;2024-01-15T05:23:33;25.80;;;9.47;;
5225;SDS011;2632;51.666;7.146;2024-01-15T05:26:00;13.87;;;8.20;;
5225;SDS011;2632;51.666;7.146;2024-01-15T05:28:27;18.07;;;8.73;;
5225;SDS011;2632;51.666;7.146;2024-01-15T05:30:54;21.40;;;9.73;;
5225;SDS011;2632;51.666;7.146;2024-01-15T05:33:23;21.50;;;8.27;;
5225;SDS011;2632;51.666;7.146;2024-01-15T05:35:50;18.17;;;9.10;;
5225;SDS011;2632;51.666;7.146;2024-01-15T05:38:17;16.33;;;8.70;;
5225;SDS011;2632;51.666;7.146;2024-01-15T05:40:43;22.23;;;8.47;;
5225;SDS011;2632;51.666;7.146;2024-01-15T05:43:10;20.17;;;8.70;;
5225;SDS011;2632;51.666;7.146;2024-01-15T05:45:38;14.07;;;8.13;;
5225;SDS011;2632;51.666;7.146;2024-01-15T05:48:05;16.30;;;8.57;;
5225;SDS011;2632;51.666;7.146;2024-01-15T05:50:32;17.17;;;9.37;;
5225;SDS011;2632;51.666;7.146;2024-01-15T05:52:58;15.07;;;7.87;;
5225;SDS011;2632;51.666;7.146;2024-01-15T05:55:25;16.90;;;8.50;;
5225;SDS011;2632;51.666;7.146;2024-01-15T05:57:51;17.53;;;8.00;;
5225;SDS011;2632;51.666;7.146;2024-01-15T06:00:18;12.57;;;6.30;;
5225;SDS011;2632;51.666;7.146;2024-01-15T06:02:45;20.77;;;7.70;;
5225;SDS011;2632;51.666;7.146;2024-01-15T06:05:12;14.13;;;7.40;;
5225;SDS011;2632;51.666;7.146;2024-01-15T06:07:38;12.03;;;6.97;;
5225;SDS011;2632;51.666;7.146;2024-01-15T06:10:05;16.77;;;6.80;;
5225;SDS011;2632;51.666;7.146;2024-01-15T06:12:32;23.97;;;7.33;;
5225;SDS011;2632;51.666;7.146;2024-01-15T06:14:59;19.33;;;6.87;;
5225;SDS011;2632;51.666;7.146;2024-01-15T06:17:27;16.93;;;7.90;;
5225;SDS011;2632;51.666;7.146;2024-01-15T06:19:53;12.23;;;6.90;;
5225;SDS011;2632;51.666;7.146;2024-01-15T06:22:20;13.37;;;7.57;;
5225;SDS011;2632;51.666;7.146;2024-01-15T06:24:47;16.07;;;7.10;;
5225;SDS011;2632;51.666;7.146;2024-01-15T06:27:14;14.63;;;6.43;;
5225;SDS011;2632;51.666;7.146;2024-01-15T06:29:44;17.83;;;7.47;;
5225;SDS011;2632;51.666;7.146;2024-01-15T06:32:16;17.20;;;7.70;;
5225;SDS011;2632;51.666;7.146;2024-01-15T06:34:42;13.97;;;6.27;;
5225;SDS011;2632;51.666;7.146;2024-01-15T06:37:09;15.17;;;7.17;;
5225;SDS011;2632;51.666;7.146;2024-01-15T06:39:36;13.30;;;6.87;;
5225;SDS011;2632;51.666;7.146;2024-01-15T06:42:03;17.10;;;7.30;;
5225;SDS011;2632;51.666;7.146;2024-01-15T06:44:30;12.90;;;7.07;;
5225;SDS011;2632;51.666;7.146;2024-01-15T06:46:56;12.57;;;6.80;;
5225;SDS011;2632;51.666;7.146;2024-01-15T06:49:28;14.73;;;7.60;;
5225;SDS011;2632;51.666;7.146;2024-01-15T06:51:56;12.87;;;6.17;;
5225;SDS011;2632;51.666;7.146;2024-01-15T06:54:23;17.37;;;7.10;;
5225;SDS011;2632;51.666;7.146;2024-01-15T06:56:50;19.00;;;7.43;;
5225;SDS011;2632;51.666;7.146;2024-01-15T06:59:16;15.50;;;7.70;;
5225;SDS011;2632;51.666;7.146;2024-01-15T07:01:45;15.03;;;7.43;;
5225;SDS011;2632;51.666;7.146;2024-01-15T07:04:12;13.50;;;7.10;;
5225;SDS011;2632;51.666;7.146;2024-01-15T07:06:39;15.30;;;7.07;;
5225;SDS011;2632;51.666;7.146;2024-01-15T07:09:06;12.33;;;6.47;;
5225;SDS011;2632;51.666;7.146;2024-01-15T07:11:34;13.50;;;6.97;;
5225;SDS011;2632;51.666;7.146;2024-01-15T07:14:00;14.50;;;6.57;;
5225;SDS011;2632;51.666;7.146;2024-01-15T07:16:27;14.13;;;7.00;;
5225;SDS011;2632;51.666;7.146;2024-01-15T07:19:03;10.83;;;6.00;;
5225;SDS011;2632;51.666;7.146;2024-01-15T07:21:30;13.63;;;6.73;;
5225;SDS011;2632;51.666;7.146;2024-01-15T07:23:57;14.50;;;6.43;;
5225;SDS011;2632;51.666;7.146;2024-01-15T07:26:23;14.57;;;6.80;;
5225;SDS011;2632;51.666;7.146;2024-01-15T07:28:51;14.30;;;5.93;;
5225;SDS011;2632;51.666;7.146;2024-01-15T07:31:17;12.57;;;5.87;;
5225;SDS011;2632;51.666;7.146;2024-01-15T07:33:45;11.47;;;5.77;;
5225;SDS011;2632;51.666;7.146;2024-01-15T07:36:12;12.73;;;5.50;;
5225;SDS011;2632;51.666;7.146;2024-01-15T07:38:39;11.63;;;5.30;;
5225;SDS011;2632;51.666;7.146;2024-01-15T07:41:06;8.30;;;4.80;;
5225;SDS011;2632;51.666;7.146;2024-01-15T07:43:32;9.30;;;4.93;;
5225;SDS011;2632;51.666;7.146;2024-01-15T07:45:59;7.83;;;4.27;;
5225;SDS011;2632;51.666;7.146;2024-01-15T07:48:27;9.03;;;4.90;;
5225;SDS011;2632;51.666;7.146;2024-01-15T07:50:54;6.00;;;4.30;;
5225;SDS011;2632;51.666;7.146;2024-01-15T07:53:20;9.60;;;4.30;;
5225;SDS011;2632;51.666;7.146;2024-01-15T07:55:47;7.07;;;4.23;;
5225;SDS011;2632;51.666;7.146;2024-01-15T07:58:14;7.63;;;4.37;;
5225;SDS011;2632;51.666;7.146;2024-01-15T08:00:42;8.53;;;4.50;;
5225;SDS011;2632;51.666;7.146;2024-01-15T08:03:10;9.20;;;5.50;;
5225;SDS011;2632;51.666;7.146;2024-01-15T08:05:37;8.60;;;5.37;;
5225;SDS011;2632;51.666;7.146;2024-01-15T08:08:04;12.07;;;6.00;;
5225;SDS011;2632;51.666;7.146;2024-01-15T08:10:31;11.07;;;6.23;;
5225;SDS011;2632;51.666;7.146;2024-01-15T08:12:58;10.87;;;6.30;;
5225;SDS011;2632;51.666;7.146;2024-01-15T08:15:25;11.17;;;6.23;;
5225;SDS011;2632;51.666;7.146;2024-01-15T08:17:56;11.27;;;6.33;;
5225;SDS011;2632;51.666;7.146;2024-01-15T08:20:24;11.47;;;5.37;;
5225;SDS011;2632;51.666;7.146;2024-01-15T08:22:51;8.30;;;5.53;;
5225;SDS011;2632;51.666;7.146;2024-01-15T08:25:18;8.70;;;4.53;;
5225;SDS011;2632;51.666;7.146;2024-01-15T08:27:45;7.57;;;4.10;;
5225;SDS011;2632;51.666;7.146;2024-01-15T08:30:12;7.37;;;4.30;;
5225;SDS011;2632;51.666;7.146;2024-01-15T08:32:39;7.50;;;4.60;;
5225;SDS011;2632;51.666;7.146;2024-01-15T08:35:09;7.90;;;4.60;;
5225;SDS011;2632;51.666;7.146;2024-01-15T08:37:36;8.17;;;4.27;;
5225;SDS011;2632;51.666;7.146;2024-01-15T08:40:04;7.47;;;4.10;;
5225;SDS011;2632;51.666;7.146;2024-01-15T08:42:31;6.80;;;4.30;;
5225;SDS011;2632;51.666;7.146;2024-01-15T08:44:57;5.87;;;3.47;;
5225;SDS011;2632;51.666;7.146;2024-01-15T08:47:24;5.50;;;2.90;;
5225;SDS011;2632;51.666;7.146;2024-01-15T08:49:52;8.50;;;3.97;;
5225;SDS011;2632;51.666;7.146;2024-01-15T08:52:18;7.53;;;3.57;;
5225;SDS011;2632;51.666;7.146;2024-01-15T08:54:46;6.70;;;4.00;;
5225;SDS011;2632;51.666;7.146;2024-01-15T08:57:13;8.03;;;4.60;;
5225;SDS011;2632;51.666;7.146;2024-01-15T08:59:39;8.20;;;4.27;;
5225;SDS011;2632;51.666;7.146;2024-01-15T09:02:07;5.50;;;3.90;;
5225;SDS011;2632;51.666;7.146;2024-01-15T09:04:34;8.73;;;4.43;;
5225;SDS011;2632;51.666;7.146;2024-01-15T09:07:00;8.47;;;4.47;;
5225;SDS011;2632;51.666;7.146;2024-01-15T09:09:28;8.07;;;4.40;;
5225;SDS011;2632;51.666;7.146;2024-01-15T09:11:54;7.17;;;4.47;;
5225;SDS011;2632;51.666;7.146;2024-01-15T09:14:21;6.50;;;3.90;;
5225;SDS011;2632;51.666;7.146;2024-01-15T09:17:03;5.43;;;3.70;;
5225;SDS011;2632;51.666;7.146;2024-01-15T09:19:30;6.67;;;4.40;;
5225;SDS011;2632;51.666;7.146;2024-01-15T09:21:59;8.17;;;4.53;;
5225;SDS011;2632;51.666;7.146;2024-01-15T09:24:25;8.80;;;4.33;;
5225;SDS011;2632;51.666;7.146;2024-01-15T09:26:54;8.50;;;4.97;;
5225;SDS011;2632;51.666;7.146;2024-01-15T09:29:21;7.20;;;4.30;;
5225;SDS011;2632;51.666;7.146;2024-01-15T09:31:49;5.70;;;3.87;;
5225;SDS011;2632;51.666;7.146;2024-01-15T09:34:17;5.80;;;3.53;;
5225;SDS011;2632;51.666;7.146;2024-01-15T09:36:44;5.43;;;3.50;;
5225;SDS011;2632;51.666;7.146;2024-01-15T09:39:11;6.13;;;3.53;;
5225;SDS011;2632;51.666;7.146;2024-01-15T09:41:37;6.87;;;3.70;;
5225;SDS011;2632;51.666;7.146;2024-01-15T09:44:04;7.37;;;3.83;;
5225;SDS011;2632;51.666;7.146;2024-01-15T09:46:31;6.83;;;3.93;;
5225;SDS011;2632;51.666;7.146;2024-01-15T09:49:01;6.57;;;4.00;;
5225;SDS011;2632;51.666;7.146;2024-01-15T09:51:31;5.10;;;3.60;;
5225;SDS011;2632;51.666;7.146;2024-01-15T09:53:58;7.70;;;4.40;;
5225;SDS011;2632;51.666;7.146;2024-01-15T09:56:25;6.70;;;4.03;;
5225;SDS011;2632;51.666;7.146;2024-01-15T09:58:51;6.83;;;4.17;;
5225;SDS011;2632;51.666;7.146;2024-01-15T10:01:21;6.93;;;4.40;;
5225;SDS011;2632;51.666;7.146;2024-01-15T10:03:49;6.70;;;4.33;;
5225;SDS011;2632;51.666;7.146;2024-01-15T10:06:17;6.17;;;3.73;;
5225;SDS011;2632;51.666;7.146;2024-01-15T10:08:49;8.03;;;4.93;;
5225;SDS011;2632;51.666;7.146;2024-01-15T10:11:17;5.23;;;3.53;;
5225;SDS011;2632;51.666;7.146;2024-01-15T10:13:44;6.00;;;3.30;;
5225;SDS011;2632;51.666;7.146;2024-01-15T10:16:12;7.73;;;4.87;;
5225;SDS011;2632;51.666;7.146;2024-01-15T10:18:39;5.20;;;3.80;;
5225;SDS011;2632;51.666;7.146;2024-01-15T10:21:06;6.03;;;3.17;;
5225;SDS011;2632;51.666;7.146;2024-01-15T10:23:33;7.00;;;4.37;;
5225;SDS011;2632;51.666;7.146;2024-01-15T10:26:00;6.20;;;4.20;;
5225;SDS011;2632;51.666;7.146;2024-01-15T10:28:27;7.47;;;4.40;;
5225;SDS011;2632;51.666;7.146;2024-01-15T10:30:56;8.00;;;4.83;;
5225;SDS011;2632;51.666;7.146;2024-01-15T10:33:28;7.60;;;4.60;;
5225;SDS011;2632;51.666;7.146;2024-01-15T10:35:55;8.33;;;4.63;;
5225;SDS011;2632;51.666;7.146;2024-01-15T10:38:23;9.53;;;5.67;;
5225;SDS011;2632;51.666;7.146;2024-01-15T10:40:51;9.93;;;5.87;;
5225;SDS011;2632;51.666;7.146;2024-01-15T10:43:19;8.13;;;4.73;;
5225;SDS011;2632;51.666;7.146;2024-01-15T10:45:46;9.73;;;5.40;;
5225;SDS011;2632;51.666;7.146;2024-01-15T10:48:17;8.33;;;5.07;;
5225;SDS011;2632;51.666;7.146;2024-01-15T10:50:45;8.80;;;5.07;;
5225;SDS011;2632;51.666;7.146;2024-01-15T10:53:14;10.20;;;5.10;;
5225;SDS011;2632;51.666;7.146;2024-01-15T10:55:42;11.17;;;5.67;;
5225;SDS011;2632;51.666;7.146;2024-01-15T10:58:09;9.37;;;5.00;;
5225;SDS011;2632;51.666;7.146;2024-01-15T11:00:36;9.87;;;4.50;;
5225;SDS011;2632;51.666;7.146;2024-01-15T11:03:04;7.17;;;4.30;;
5225;SDS011;2632;51.666;7.146;2024-01-15T11:05:39;8.00;;;5.37;;
5225;SDS011;2632;51.666;7.146;2024-01-15T11:08:08;12.93;;;5.10;;
5225;SDS011;2632;51.666;7.146;2024-01-15T11:13:15;8.73;;;4.87;;
5225;SDS011;2632;51.666;7.146;2024-01-15T11:18:34;11.03;;;4.30;;
5225;SDS011;2632;51.666;7.146;2024-01-15T11:21:20;9.90;;;5.17;;
5225;SDS011;2632;51.666;7.146;2024-01-15T11:23:49;8.40;;;4.80;;
5225;SDS011;2632;51.666;7.146;2024-01-15T11:29:10;8.67;;;5.30;;
5225;SDS011;2632;51.666;7.146;2024-01-15T11:37:25;9.50;;;4.70;;
5225;SDS011;2632;51.666;7.146;2024-01-15T11:39:53;9.93;;;5.00;;
5225;SDS011;2632;51.666;7.146;2024-01-15T11:42:36;10.67;;;5.27;;
5225;SDS011;2632;51.666;7.146;2024-01-15T11:45:03;7.60;;;4.23;;
5225;SDS011;2632;51.666;7.146;2024-01-15T11:50:30;6.13;;;3.50;;
5225;SDS011;2632;51.666;7.146;2024-01-15T11:53:03;6.43;;;3.00;;
5225;SDS011;2632;51.666;7.146;2024-01-15T11:55:38;4.23;;;2.57;;
5225;SDS011;2632;51.666;7.146;2024-01-15T11:58:10;3.60;;;3.17;;
5225;SDS011;2632;51.666;7.146;2024-01-15T12:00:40;4.73;;;2.80;;
5225;SDS011;2632;51.666;7.146;2024-01-15T12:03:09;5.50;;;3.00;;
5225;SDS011;2632;51.666;7.146;2024-01-15T12:05:36;8.20;;;3.80;;
5225;SDS011;2632;51.666;7.146;2024-01-15T12:08:04;5.33;;;4.00;;
5225;SDS011;2632;51.666;7.146;2024-01-15T12:10:37;8.67;;;3.60;;
5225;SDS011;2632;51.666;7.146;2024-01-15T12:13:10;5.60;;;3.90;;
5225;SDS011;2632;51.666;7.146;2024-01-15T12:15:39;5.20;;;3.67;;
5225;SDS011;2632;51.666;7.146;2024-01-15T12:18:11;11.70;;;3.73;;
5225;SDS011;2632;51.666;7.146;2024-01-15T12:20:40;9.70;;;3.57;;
5225;SDS011;2632;51.666;7.146;2024-01-15T12:23:09;7.90;;;4.70;;
5225;SDS011;2632;51.666;7.146;2024-01-15T12:25:36;7.77;;;4.73;;
5225;SDS011;2632;51.666;7.146;2024-01-15T12:28:04;7.17;;;4.20;;
5225;SDS011;2632;51.666;7.146;2024-01-15T12:30:32;7.73;;;4.70;;
5225;SDS011;2632;51.666;7.146;2024-01-15T12:33:04;8.53;;;5.00;;
5225;SDS011;2632;51.666;7.146;2024-01-15T12:35:31;7.70;;;4.67;;
5225;SDS011;2632;51.666;7.146;2024-01-15T12:38:00;9.13;;;4.70;;
5225;SDS011;2632;51.666;7.146;2024-01-15T12:40:30;8.50;;;4.80;;
5225;SDS011;2632;51.666;7.146;2024-01-15T12:42:59;8.13;;;4.33;;
5225;SDS011;2632;51.666;7.146;2024-01-15T12:45:26;4.50;;;3.70;;
5225;SDS011;2632;51.666;7.146;2024-01-15T12:47:53;6.10;;;3.77;;
5225;SDS011;2632;51.666;7.146;2024-01-15T12:50:23;10.57;;;4.30;;
5225;SDS011;2632;51.666;7.146;2024-01-15T12:52:50;10.27;;;4.10;;
5225;SDS011;2632;51.666;7.146;2024-01-15T12:55:17;10.83;;;4.37;;
5225;SDS011;2632;51.666;7.146;2024-01-15T12:57:44;6.13;;;3.37;;
5225;SDS011;2632;51.666;7.146;2024-01-15T13:00:12;8.63;;;3.40;;
5225;SDS011;2632;51.666;7.146;2024-01-15T13:02:40;3.80;;;2.80;;
5225;SDS011;2632;51.666;7.146;2024-01-15T13:05:08;4.03;;;2.60;;
5225;SDS011;2632;51.666;7.146;2024-01-15T13:07:37;7.20;;;2.10;;
5225;SDS011;2632;51.666;7.146;2024-01-15T13:10:05;3.90;;;2.00;;
5225;SDS011;2632;51.666;7.146;2024-01-15T13:12:33;4.03;;;2.43;;
5225;SDS011;2632;51.666;7.146;2024-01-15T13:15:00;3.47;;;2.30;;
5225;SDS011;2632;51.666;7.146;2024-01-15T13:17:29;5.67;;;2.50;;
5225;SDS011;2632;51.666;7.146;2024-01-15T13:19:56;3.30;;;1.80;;
5225;SDS011;2632;51.666;7.146;2024-01-15T13:22:23;2.60;;;1.70;;
5225;SDS011;2632;51.666;7.146;2024-01-15T13:24:55;2.30;;;1.57;;
5225;SDS011;2632;51.666;7.146;2024-01-15T13:27:22;6.23;;;2.13;;
5225;SDS011;2632;51.666;7.146;2024-01-15T13:29:49;4.33;;;1.43;;
5225;SDS011;2632;51.666;7.146;2024-01-15T13:32:17;3.87;;;2.23;;
5225;SDS011;2632;51.666;7.146;2024-01-15T13:34:52;7.57;;;2.70;;
5225;SDS011;2632;51.666;7.146;2024-01-15T13:37:19;3.40;;;2.20;;
5225;SDS011;2632;51.666;7.146;2024-01-15T13:39:45;3.27;;;1.87;;
5225;SDS011;2632;51.666;7.146;2024-01-15T13:42:12;4.30;;;2.20;;
5225;SDS011;2632;51.666;7.146;2024-01-15T13:44:39;5.57;;;1.83;;
5225;SDS011;2632;51.666;7.146;2024-01-15T13:47:05;3.27;;;2.03;;
5225;SDS011;2632;51.666;7.146;2024-01-15T13:49:32;3.23;;;1.77;;
5225;SDS011;2632;51.666;7.146;2024-01-15T13:52:00;7.70;;;2.10;;
5225;SDS011;2632;51.666;7.146;2024-01-15T13:54:30;5.33;;;1.80;;
5225;SDS011;2632;51.666;7.146;2024-01-15T13:57:14;6.47;;;1.87;;
5225;SDS011;2632;51.666;7.146;2024-01-15T13:59:41;4.33;;;1.57;;
5225;SDS011;2632;51.666;7.146;2024-01-15T14:02:08;5.93;;;2.00;;
5225;SDS011;2632;51.666;7.146;2024-01-15T14:04:36;3.73;;;1.60;;
5225;SDS011;2632;51.666;7.146;2024-01-15T14:07:03;2.50;;;1.57;;
5225;SDS011;2632;51.666;7.146;2024-01-15T14:09:30;2.70;;;1.60;;
5225;SDS011;2632;51.666;7.146;2024-01-15T14:11:58;4.77;;;2.10;;
5225;SDS011;2632;51.666;7.146;2024-01-15T14:14:25;2.83;;;1.80;;
5225;SDS011;2632;51.666;7.146;2024-01-15T14:16:52;2.43;;;1.47;;
5225;SDS011;2632;51.666;7.146;2024-01-15T14:19:18;2.07;;;1.30;;
5225;SDS011;2632;51.666;7.146;2024-01-15T14:21:46;4.80;;;1.90;;
5225;SDS011;2632;51.666;7.146;2024-01-15T14:24:13;2.50;;;1.37;;
5225;SDS011;2632;51.666;7.146;2024-01-15T14:26:40;4.40;;;1.20;;
5225;SDS011;2632;51.666;7.146;2024-01-15T14:29:07;2.97;;;1.20;;
5225;SDS011;2632;51.666;7.146;2024-01-15T14:31:34;3.90;;;1.37;;
5225;SDS011;2632;51.666;7.146;2024-01-15T14:34:01;5.27;;;1.27;;
5225;SDS011;2632;51.666;7.146;2024-01-15T14:36:29;5.77;;;1.30;;
5225;SDS011;2632;51.666;7.146;2024-01-15T14:38:56;2.00;;;1.13;;
5225;SDS011;2632;51.666;7.146;2024-01-15T14:41:23;2.97;;;1.67;;
5225;SDS011;2632;51.666;7.146;2024-01-15T14:43:50;5.87;;;1.50;;
5225;SDS011;2632;51.666;7.146;2024-01-15T14:46:16;3.00;;;1.10;;
5225;SDS011;2632;51.666;7.146;2024-01-15T14:48:43;2.60;;;1.40;;
5225;SDS011;2632;51.666;7.146;2024-01-15T14:51:11;1.73;;;1.50;;
5225;SDS011;2632;51.666;7.146;2024-01-15T14:53:38;3.50;;;1.43;;
5225;SDS011;2632;51.666;7.146;2024-01-15T14:56:05;1.80;;;1.40;;
5225;SDS011;2632;51.666;7.146;2024-01-15T14:58:32;5.20;;;1.80;;
5225;SDS011;2632;51.666;7.146;2024-01-15T15:00:58;4.57;;;1.80;;
5225;SDS011;2632;51.666;7.146;2024-01-15T15:03:28;3.40;;;1.80;;
5225;SDS011;2632;51.666;7.146;2024-01-15T15:05:55;9.30;;;2.20;;
5225;SDS011;2632;51.666;7.146;2024-01-15T15:08:22;7.73;;;2.30;;
5225;SDS011;2632;51.666;7.146;2024-01-15T15:10:48;6.13;;;2.13;;
5225;SDS011;2632;51.666;7.146;2024-01-15T15:13:15;3.67;;;2.23;;
5225;SDS011;2632;51.666;7.146;2024-01-15T15:15:55;5.60;;;2.40;;
5225;SDS011;2632;51.666;7.146;2024-01-15T15:18:21;4.17;;;2.57;;
5225;SDS011;2632;51.666;7.146;2024-01-15T15:20:48;8.47;;;2.60;;